sensor_id;sensor_type;location;lat;lon;timestamp;temperature;humidity
21787;DHT22;11055;50.870;4.316;2023-05-07T00:01:02;19.20;99.90
21787;DHT22;11055;50.870;4.316;2023-05-07T00:03:27;19.30;99.90
21787;DHT22;11055;50.870;4.316;2023-05-07T00:05:54;19.30;99.90
21787;DHT22;11055;50.870;4.316;2023-05-07T00:08:20;19.30;99.90
21787;DHT22;11055;50.870;4.316;2023-05-07T00:10:46;19.30;99.90
21787;DHT22;11055;50.870;4.316;2023-05-07T00:13:12;19.20;99.90
21787;DHT22;11055;50.870;4.316;2023-05-07T00:15:37;19.20;99.90
21787;DHT22;11055;50.870;4.316;2023-05-07T00:18:03;19.20;99.90
21787;DHT22;11055;50.870;4.316;2023-05-07T00:20:28;19.20;99.90
21787;DHT22;11055;50.870;4.316;2023-05-07T00:22:54;19.20;99.90
21787;DHT22;11055;50.870;4.316;2023-05-07T00:25:20;19.20;99.90
21787;DHT22;11055;50.870;4.316;2023-05-07T00:27:46;19.30;99.90
21787;DHT22;11055;50.870;4.316;2023-05-07T00:30:12;19.20;99.90
21787;DHT22;11055;50.870;4.316;2023-05-07T00:32:38;19.20;99.90
21787;DHT22;11055;50.870;4.316;2023-05-07T00:35:04;19.30;99.90
21787;DHT22;11055;50.870;4.316;2023-05-07T00:37:30;19.40;99.90
21787;DHT22;11055;50.870;4.316;2023-05-07T00:39:56;19.30;99.90
21787;DHT22;11055;50.870;4.316;2023-05-07T00:42:22;19.10;99.90
21787;DHT22;11055;50.870;4.316;2023-05-07T00:44:47;19.00;99.90
21787;DHT22;11055;50.870;4.316;2023-05-07T00:47:14;19.00;99.90
21787;DHT22;11055;50.870;4.316;2023-05-07T00:49:44;19.00;99.90
21787;DHT22;11055;50.870;4.316;2023-05-07T00:52:15;18.90;99.90
21787;DHT22;11055;50.870;4.316;2023-05-07T00:54:41;18.80;99.90
21787;DHT22;11055;50.870;4.316;2023-05-07T00:57:07;18.80;99.90
21787;DHT22;11055;50.870;4.316;2023-05-07T00:59:34;18.80;99.90
21787;DHT22;11055;50.870;4.316;2023-05-07T01:02:00;18.80;99.90
21787;DHT22;11055;50.870;4.316;2023-05-07T01:04:26;18.80;99.90
21787;DHT22;11055;50.870;4.316;2023-05-07T01:06:54;18.80;99.90
21787;DHT22;11055;50.870;4.316;2023-05-07T01:09:22;18.80;99.90
21787;DHT22;11055;50.870;4.316;2023-05-07T01:11:49;18.80;99.90
21787;DHT22;11055;50.870;4.316;2023-05-07T01:14:16;18.90;99.90
21787;DHT22;11055;50.870;4.316;2023-05-07T01:16:42;19.00;99.90
21787;DHT22;11055;50.870;4.316;2023-05-07T01:19:08;19.00;99.90
21787;DHT22;11055;50.870;4.316;2023-05-07T01:21:37;19.10;99.90
21787;DHT22;11055;50.870;4.316;2023-05-07T01:24:04;19.10;99.90
21787;DHT22;11055;50.870;4.316;2023-05-07T01:26:30;19.10;99.90
21787;DHT22;11055;50.870;4.316;2023-05-07T01:28:56;19.00;99.90
21787;DHT22;11055;50.870;4.316;2023-05-07T01:31:24;19.00;99.90
21787;DHT22;11055;50.870;4.316;2023-05-07T01:33:50;19.00;99.90
21787;DHT22;11055;50.870;4.316;2023-05-07T01:36:18;19.00;99.90
21787;DHT22;11055;50.870;4.316;2023-05-07T01:38:44;19.10;99.90
21787;DHT22;11055;50.870;4.316;2023-05-07T01:41:11;19.10;99.90
21787;DHT22;11055;50.870;4.316;2023-05-07T01:43:37;19.10;99.90
21787;DHT22;11055;50.870;4.316;2023-05-07T01:46:02;19.00;99.90
21787;DHT22;11055;50.870;4.316;2023-05-07T01:48:29;19.10;99.90
21787;DHT22;11055;50.870;4.316;2023-05-07T01:50:55;19.20;99.90
21787;DHT22;11055;50.870;4.316;2023-05-07T01:53:21;19.20;99.90
21787;DHT22;11055;50.870;4.316;2023-05-07T01:55:46;19.10;99.90
21787;DHT22;11055;50.870;4.316;2023-05-07T01:58:12;19.00;99.90
21787;DHT22;11055;50.870;4.316;2023-05-07T02:00:38;18.90;99.90
21787;DHT22;11055;50.870;4.316;2023-05-07T02:03:04;18.90;99.90
21787;DHT22;11055;50.870;4.316;2023-05-07T02:05:29;18.80;99.90
21787;DHT22;11055;50.870;4.316;2023-05-07T02:07:55;18.80;99.90
21787;DHT22;11055;50.870;4.316;2023-05-07T02:10:21;18.80;99.90
21787;DHT22;11055;50.870;4.316;2023-05-07T02:12:46;18.90;99.90
21787;DHT22;11055;50.870;4.316;2023-05-07T02:15:12;19.00;99.90
21787;DHT22;11055;50.870;4.316;2023-05-07T02:18:02;19.00;99.90
21787;DHT22;11055;50.870;4.316;2023-05-07T02:20:28;18.80;99.90
21787;DHT22;11055;50.870;4.316;2023-05-07T02:22:53;18.80;99.90
21787;DHT22;11055;50.870;4.316;2023-05-07T02:25:19;19.00;99.90
21787;DHT22;11055;50.870;4.316;2023-05-07T02:27:45;19.00;99.90
21787;DHT22;11055;50.870;4.316;2023-05-07T02:30:10;18.90;99.90
21787;DHT22;11055;50.870;4.316;2023-05-07T02:32:36;18.90;99.90
21787;DHT22;11055;50.870;4.316;2023-05-07T02:35:02;18.80;99.90
21787;DHT22;11055;50.870;4.316;2023-05-07T02:37:27;18.80;99.90
21787;DHT22;11055;50.870;4.316;2023-05-07T02:39:53;18.70;99.90
21787;DHT22;11055;50.870;4.316;2023-05-07T02:42:19;18.50;99.90
21787;DHT22;11055;50.870;4.316;2023-05-07T02:44:44;18.50;99.90
21787;DHT22;11055;50.870;4.316;2023-05-07T02:47:10;18.60;99.90
21787;DHT22;11055;50.870;4.316;2023-05-07T02:49:38;18.80;99.90
21787;DHT22;11055;50.870;4.316;2023-05-07T02:52:04;18.70;99.90
21787;DHT22;11055;50.870;4.316;2023-05-07T02:54:30;18.60;99.90
21787;DHT22;11055;50.870;4.316;2023-05-07T02:56:55;18.70;99.90
21787;DHT22;11055;50.870;4.316;2023-05-07T02:59:21;18.70;99.90
21787;DHT22;11055;50.870;4.316;2023-05-07T03:01:47;18.80;99.90
21787;DHT22;11055;50.870;4.316;2023-05-07T03:04:13;18.80;99.90
21787;DHT22;11055;50.870;4.316;2023-05-07T03:06:39;18.70;99.90
21787;DHT22;11055;50.870;4.316;2023-05-07T03:09:05;18.70;99.90
21787;DHT22;11055;50.870;4.316;2023-05-07T03:11:30;18.60;99.90
21787;DHT22;11055;50.870;4.316;2023-05-07T03:13:56;18.50;99.90
21787;DHT22;11055;50.870;4.316;2023-05-07T03:16:22;18.40;99.90
21787;DHT22;11055;50.870;4.316;2023-05-07T03:18:47;18.50;99.90
21787;DHT22;11055;50.870;4.316;2023-05-07T03:21:13;18.60;99.90
21787;DHT22;11055;50.870;4.316;2023-05-07T03:23:39;18.60;99.90
21787;DHT22;11055;50.870;4.316;2023-05-07T03:26:04;18.60;99.90
21787;DHT22;11055;50.870;4.316;2023-05-07T03:28:30;18.60;99.90
21787;DHT22;11055;50.870;4.316;2023-05-07T03:30:56;18.70;99.90
21787;DHT22;11055;50.870;4.316;2023-05-07T03:33:21;18.80;99.90
21787;DHT22;11055;50.870;4.316;2023-05-07T03:35:47;18.80;99.90
21787;DHT22;11055;50.870;4.316;2023-05-07T03:38:13;18.80;99.90
21787;DHT22;11055;50.870;4.316;2023-05-07T03:40:38;18.80;99.90
21787;DHT22;11055;50.870;4.316;2023-05-07T03:43:04;18.70;99.90
21787;DHT22;11055;50.870;4.316;2023-05-07T03:45:30;18.60;99.90
21787;DHT22;11055;50.870;4.316;2023-05-07T03:47:56;18.50;99.90
21787;DHT22;11055;50.870;4.316;2023-05-07T03:50:21;18.40;99.90
21787;DHT22;11055;50.870;4.316;2023-05-07T03:52:47;18.30;99.90
21787;DHT22;11055;50.870;4.316;2023-05-07T03:55:12;18.20;99.90
21787;DHT22;11055;50.870;4.316;2023-05-07T03:57:38;18.30;99.90
21787;DHT22;11055;50.870;4.316;2023-05-07T04:00:04;18.40;99.90
21787;DHT22;11055;50.870;4.316;2023-05-07T04:02:31;18.50;99.90
21787;DHT22;11055;50.870;4.316;2023-05-07T04:04:56;18.40;99.90
21787;DHT22;11055;50.870;4.316;2023-05-07T04:07:22;18.50;99.90
21787;DHT22;11055;50.870;4.316;2023-05-07T04:09:48;18.40;99.90
21787;DHT22;11055;50.870;4.316;2023-05-07T04:12:13;18.40;99.90
21787;DHT22;11055;50.870;4.316;2023-05-07T04:14:39;18.60;99.90
21787;DHT22;11055;50.870;4.316;2023-05-07T04:17:04;18.70;99.90
21787;DHT22;11055;50.870;4.316;2023-05-07T04:19:33;18.70;99.90
21787;DHT22;11055;50.870;4.316;2023-05-07T04:21:59;18.70;99.90
21787;DHT22;11055;50.870;4.316;2023-05-07T04:24:25;18.70;99.90
21787;DHT22;11055;50.870;4.316;2023-05-07T04:26:50;18.70;99.90
21787;DHT22;11055;50.870;4.316;2023-05-07T04:29:16;18.80;99.90
21787;DHT22;11055;50.870;4.316;2023-05-07T04:31:42;18.80;99.90
21787;DHT22;11055;50.870;4.316;2023-05-07T04:34:10;18.70;99.90
21787;DHT22;11055;50.870;4.316;2023-05-07T04:36:39;18.70;99.90
21787;DHT22;11055;50.870;4.316;2023-05-07T04:39:05;18.70;99.90
21787;DHT22;11055;50.870;4.316;2023-05-07T04:41:32;18.60;99.90
21787;DHT22;11055;50.870;4.316;2023-05-07T04:43:58;18.50;99.90
21787;DHT22;11055;50.870;4.316;2023-05-07T04:46:24;18.50;99.90
21787;DHT22;11055;50.870;4.316;2023-05-07T04:48:50;18.60;99.90
21787;DHT22;11055;50.870;4.316;2023-05-07T04:51:15;18.60;99.90
21787;DHT22;11055;50.870;4.316;2023-05-07T04:53:41;18.60;99.90
21787;DHT22;11055;50.870;4.316;2023-05-07T04:56:08;18.60;99.90
21787;DHT22;11055;50.870;4.316;2023-05-07T04:58:34;18.70;99.90
21787;DHT22;11055;50.870;4.316;2023-05-07T05:01:00;18.80;99.90
21787;DHT22;11055;50.870;4.316;2023-05-07T05:03:25;18.70;99.90
21787;DHT22;11055;50.870;4.316;2023-05-07T05:05:52;18.60;99.90
21787;DHT22;11055;50.870;4.316;2023-05-07T05:08:18;18.50;99.90
21787;DHT22;11055;50.870;4.316;2023-05-07T05:10:44;18.40;99.90
21787;DHT22;11055;50.870;4.316;2023-05-07T05:13:10;18.60;99.90
21787;DHT22;11055;50.870;4.316;2023-05-07T05:15:38;18.70;99.90
21787;DHT22;11055;50.870;4.316;2023-05-07T05:18:03;18.80;99.90
21787;DHT22;11055;50.870;4.316;2023-05-07T05:20:29;18.80;99.90
21787;DHT22;11055;50.870;4.316;2023-05-07T05:22:55;18.90;99.90
21787;DHT22;11055;50.870;4.316;2023-05-07T05:25:21;18.90;99.90
21787;DHT22;11055;50.870;4.316;2023-05-07T05:27:46;18.90;99.90
21787;DHT22;11055;50.870;4.316;2023-05-07T05:30:12;18.90;99.90
21787;DHT22;11055;50.870;4.316;2023-05-07T05:32:38;18.70;99.90
21787;DHT22;11055;50.870;4.316;2023-05-07T05:35:04;18.60;99.90
21787;DHT22;11055;50.870;4.316;2023-05-07T05:37:30;18.60;99.90
21787;DHT22;11055;50.870;4.316;2023-05-07T05:39:56;18.60;99.90
21787;DHT22;11055;50.870;4.316;2023-05-07T05:42:22;18.80;99.90
21787;DHT22;11055;50.870;4.316;2023-05-07T05:44:48;18.80;99.90
21787;DHT22;11055;50.870;4.316;2023-05-07T05:47:14;18.80;99.90
21787;DHT22;11055;50.870;4.316;2023-05-07T05:49:40;18.90;99.90
21787;DHT22;11055;50.870;4.316;2023-05-07T05:52:05;19.00;99.90
21787;DHT22;11055;50.870;4.316;2023-05-07T05:54:31;18.50;99.90
21787;DHT22;11055;50.870;4.316;2023-05-07T05:56:57;18.20;99.90
21787;DHT22;11055;50.870;4.316;2023-05-07T05:59:23;17.80;99.90
21787;DHT22;11055;50.870;4.316;2023-05-07T06:01:48;17.60;99.90
21787;DHT22;11055;50.870;4.316;2023-05-07T06:04:14;17.40;99.90
21787;DHT22;11055;50.870;4.316;2023-05-07T06:06:40;17.40;99.90
21787;DHT22;11055;50.870;4.316;2023-05-07T06:09:05;17.40;99.90
21787;DHT22;11055;50.870;4.316;2023-05-07T06:11:31;17.50;99.90
21787;DHT22;11055;50.870;4.316;2023-05-07T06:13:57;17.50;99.90
21787;DHT22;11055;50.870;4.316;2023-05-07T06:16:24;17.60;99.90
21787;DHT22;11055;50.870;4.316;2023-05-07T06:18:50;17.40;99.90
21787;DHT22;11055;50.870;4.316;2023-05-07T06:21:16;17.10;99.90
21787;DHT22;11055;50.870;4.316;2023-05-07T06:23:41;16.90;99.90
21787;DHT22;11055;50.870;4.316;2023-05-07T06:26:07;16.80;99.90
21787;DHT22;11055;50.870;4.316;2023-05-07T06:28:33;16.70;99.90
21787;DHT22;11055;50.870;4.316;2023-05-07T06:31:19;16.60;99.90
21787;DHT22;11055;50.870;4.316;2023-05-07T06:33:46;16.60;99.90
21787;DHT22;11055;50.870;4.316;2023-05-07T06:36:11;16.60;99.90
21787;DHT22;11055;50.870;4.316;2023-05-07T06:38:37;16.60;99.90
21787;DHT22;11055;50.870;4.316;2023-05-07T06:41:03;16.60;99.90
21787;DHT22;11055;50.870;4.316;2023-05-07T06:43:28;16.40;99.90
21787;DHT22;11055;50.870;4.316;2023-05-07T06:45:54;16.40;99.90
21787;DHT22;11055;50.870;4.316;2023-05-07T06:48:20;16.30;99.90
21787;DHT22;11055;50.870;4.316;2023-05-07T06:50:45;16.20;99.90
21787;DHT22;11055;50.870;4.316;2023-05-07T06:53:11;16.40;99.90
21787;DHT22;11055;50.870;4.316;2023-05-07T06:55:37;16.50;99.90
21787;DHT22;11055;50.870;4.316;2023-05-07T06:58:03;16.60;99.90
21787;DHT22;11055;50.870;4.316;2023-05-07T07:00:29;16.50;99.90
21787;DHT22;11055;50.870;4.316;2023-05-07T07:02:56;16.40;99.90
21787;DHT22;11055;50.870;4.316;2023-05-07T07:05:22;16.40;99.90
21787;DHT22;11055;50.870;4.316;2023-05-07T07:07:48;16.40;99.90
21787;DHT22;11055;50.870;4.316;2023-05-07T07:10:19;16.30;99.90
21787;DHT22;11055;50.870;4.316;2023-05-07T07:12:45;16.30;99.90
21787;DHT22;11055;50.870;4.316;2023-05-07T07:15:11;16.20;99.90
21787;DHT22;11055;50.870;4.316;2023-05-07T07:17:36;16.30;99.90
21787;DHT22;11055;50.870;4.316;2023-05-07T07:20:02;16.20;99.90
21787;DHT22;11055;50.870;4.316;2023-05-07T07:22:29;16.30;99.90
21787;DHT22;11055;50.870;4.316;2023-05-07T07:24:54;16.30;99.90
21787;DHT22;11055;50.870;4.316;2023-05-07T07:27:20;16.30;99.90
21787;DHT22;11055;50.870;4.316;2023-05-07T07:29:46;16.30;99.90
21787;DHT22;11055;50.870;4.316;2023-05-07T07:32:11;16.30;99.90
21787;DHT22;11055;50.870;4.316;2023-05-07T07:34:37;16.10;99.90
21787;DHT22;11055;50.870;4.316;2023-05-07T07:37:02;16.10;99.90
21787;DHT22;11055;50.870;4.316;2023-05-07T07:39:32;16.00;99.90
21787;DHT22;11055;50.870;4.316;2023-05-07T07:41:57;16.00;99.90
21787;DHT22;11055;50.870;4.316;2023-05-07T07:44:23;16.00;99.90
21787;DHT22;11055;50.870;4.316;2023-05-07T07:46:49;16.00;99.90
21787;DHT22;11055;50.870;4.316;2023-05-07T07:49:15;16.10;99.90
21787;DHT22;11055;50.870;4.316;2023-05-07T07:51:41;16.00;99.90
21787;DHT22;11055;50.870;4.316;2023-05-07T07:54:07;15.90;99.90
21787;DHT22;11055;50.870;4.316;2023-05-07T07:56:33;15.90;99.90
21787;DHT22;11055;50.870;4.316;2023-05-07T07:58:59;16.10;99.90
21787;DHT22;11055;50.870;4.316;2023-05-07T08:01:25;16.20;99.90
21787;DHT22;11055;50.870;4.316;2023-05-07T08:03:51;16.10;99.90
21787;DHT22;11055;50.870;4.316;2023-05-07T08:06:17;16.20;99.90
21787;DHT22;11055;50.870;4.316;2023-05-07T08:08:43;16.20;99.90
21787;DHT22;11055;50.870;4.316;2023-05-07T08:11:09;16.40;99.90
21787;DHT22;11055;50.870;4.316;2023-05-07T08:13:35;16.30;99.90
21787;DHT22;11055;50.870;4.316;2023-05-07T08:16:01;16.40;99.90
21787;DHT22;11055;50.870;4.316;2023-05-07T08:18:27;16.50;99.90
21787;DHT22;11055;50.870;4.316;2023-05-07T08:20:54;16.50;99.90
21787;DHT22;11055;50.870;4.316;2023-05-07T08:23:20;16.50;99.90
21787;DHT22;11055;50.870;4.316;2023-05-07T08:25:46;16.30;99.90
21787;DHT22;11055;50.870;4.316;2023-05-07T08:28:12;16.20;99.90
21787;DHT22;11055;50.870;4.316;2023-05-07T08:30:37;16.30;99.90
21787;DHT22;11055;50.870;4.316;2023-05-07T08:33:03;16.40;99.90
21787;DHT22;11055;50.870;4.316;2023-05-07T08:35:29;16.60;99.90
21787;DHT22;11055;50.870;4.316;2023-05-07T08:37:55;16.90;99.90
21787;DHT22;11055;50.870;4.316;2023-05-07T08:40:25;17.20;99.90
21787;DHT22;11055;50.870;4.316;2023-05-07T08:42:52;17.40;99.90
21787;DHT22;11055;50.870;4.316;2023-05-07T08:45:19;17.60;99.90
21787;DHT22;11055;50.870;4.316;2023-05-07T08:47:52;17.80;99.90
21787;DHT22;11055;50.870;4.316;2023-05-07T08:50:21;17.80;99.90
21787;DHT22;11055;50.870;4.316;2023-05-07T08:52:47;17.60;99.90
21787;DHT22;11055;50.870;4.316;2023-05-07T08:55:13;17.40;99.90
21787;DHT22;11055;50.870;4.316;2023-05-07T08:57:39;17.40;99.90
21787;DHT22;11055;50.870;4.316;2023-05-07T09:00:06;17.50;99.90
21787;DHT22;11055;50.870;4.316;2023-05-07T09:02:33;17.60;99.90
21787;DHT22;11055;50.870;4.316;2023-05-07T09:04:58;17.70;99.90
21787;DHT22;11055;50.870;4.316;2023-05-07T09:07:25;18.00;99.90
21787;DHT22;11055;50.870;4.316;2023-05-07T09:09:51;18.20;99.90
21787;DHT22;11055;50.870;4.316;2023-05-07T09:12:18;18.30;99.90
21787;DHT22;11055;50.870;4.316;2023-05-07T09:14:45;18.40;99.90
21787;DHT22;11055;50.870;4.316;2023-05-07T09:17:11;18.60;99.90
21787;DHT22;11055;50.870;4.316;2023-05-07T09:19:36;18.70;99.90
21787;DHT22;11055;50.870;4.316;2023-05-07T09:22:04;18.70;99.90
21787;DHT22;11055;50.870;4.316;2023-05-07T09:24:30;18.70;99.90
21787;DHT22;11055;50.870;4.316;2023-05-07T09:27:00;18.90;99.90
21787;DHT22;11055;50.870;4.316;2023-05-07T09:29:26;19.00;99.90
21787;DHT22;11055;50.870;4.316;2023-05-07T09:31:54;19.00;99.90
21787;DHT22;11055;50.870;4.316;2023-05-07T09:34:20;19.00;99.90
21787;DHT22;11055;50.870;4.316;2023-05-07T09:36:47;19.00;99.90
21787;DHT22;11055;50.870;4.316;2023-05-07T09:39:13;18.90;99.90
21787;DHT22;11055;50.870;4.316;2023-05-07T09:41:47;18.90;99.90
21787;DHT22;11055;50.870;4.316;2023-05-07T09:44:14;18.90;99.90
21787;DHT22;11055;50.870;4.316;2023-05-07T09:46:43;19.10;99.90
21787;DHT22;11055;50.870;4.316;2023-05-07T09:49:13;19.00;99.90
21787;DHT22;11055;50.870;4.316;2023-05-07T09:51:48;19.10;99.90
21787;DHT22;11055;50.870;4.316;2023-05-07T09:54:15;19.30;99.90
21787;DHT22;11055;50.870;4.316;2023-05-07T09:56:41;19.40;99.90
21787;DHT22;11055;50.870;4.316;2023-05-07T09:59:08;19.40;99.90
21787;DHT22;11055;50.870;4.316;2023-05-07T10:01:36;19.40;99.90
21787;DHT22;11055;50.870;4.316;2023-05-07T10:04:02;19.40;99.90
21787;DHT22;11055;50.870;4.316;2023-05-07T10:06:30;19.40;99.90
21787;DHT22;11055;50.870;4.316;2023-05-07T10:08:56;19.50;99.90
21787;DHT22;11055;50.870;4.316;2023-05-07T10:11:22;19.40;99.90
21787;DHT22;11055;50.870;4.316;2023-05-07T10:13:48;19.30;99.90
21787;DHT22;11055;50.870;4.316;2023-05-07T10:16:14;19.10;99.90
21787;DHT22;11055;50.870;4.316;2023-05-07T10:18:43;18.80;99.90
21787;DHT22;11055;50.870;4.316;2023-05-07T10:21:23;18.60;99.90
21787;DHT22;11055;50.870;4.316;2023-05-07T10:23:59;18.50;99.90
21787;DHT22;11055;50.870;4.316;2023-05-07T10:26:27;18.70;99.90
21787;DHT22;11055;50.870;4.316;2023-05-07T10:28:58;18.80;99.90
21787;DHT22;11055;50.870;4.316;2023-05-07T10:34:18;18.70;99.90
21787;DHT22;11055;50.870;4.316;2023-05-07T10:36:46;18.60;99.90
21787;DHT22;11055;50.870;4.316;2023-05-07T10:39:13;18.70;99.90
21787;DHT22;11055;50.870;4.316;2023-05-07T10:41:39;19.00;99.90
21787;DHT22;11055;50.870;4.316;2023-05-07T10:44:05;19.20;99.90
21787;DHT22;11055;50.870;4.316;2023-05-07T10:46:31;19.20;99.90
21787;DHT22;11055;50.870;4.316;2023-05-07T10:51:26;19.20;99.90
21787;DHT22;11055;50.870;4.316;2023-05-07T10:56:42;19.20;99.90
21787;DHT22;11055;50.870;4.316;2023-05-07T10:59:31;19.30;99.90
21787;DHT22;11055;50.870;4.316;2023-05-07T11:02:01;19.50;99.90
21787;DHT22;11055;50.870;4.316;2023-05-07T11:04:29;19.60;99.90
21787;DHT22;11055;50.870;4.316;2023-05-07T11:15:04;19.80;99.90
21787;DHT22;11055;50.870;4.316;2023-05-07T11:17:30;19.90;99.90
21787;DHT22;11055;50.870;4.316;2023-05-07T11:20:00;19.90;99.90
21787;DHT22;11055;50.870;4.316;2023-05-07T11:25:04;20.00;99.90
21787;DHT22;11055;50.870;4.316;2023-05-07T11:27:31;19.90;99.90
21787;DHT22;11055;50.870;4.316;2023-05-07T11:29:57;19.90;99.90
21787;DHT22;11055;50.870;4.316;2023-05-07T11:32:32;19.80;99.90
21787;DHT22;11055;50.870;4.316;2023-05-07T11:34:59;19.90;99.90
21787;DHT22;11055;50.870;4.316;2023-05-07T11:37:26;19.80;99.90
21787;DHT22;11055;50.870;4.316;2023-05-07T11:40:09;19.60;99.90
21787;DHT22;11055;50.870;4.316;2023-05-07T11:42:40;19.50;99.90
21787;DHT22;11055;50.870;4.316;2023-05-07T11:45:09;19.70;99.90
21787;DHT22;11055;50.870;4.316;2023-05-07T11:47:35;19.90;99.90
21787;DHT22;11055;50.870;4.316;2023-05-07T11:50:06;19.90;99.90
21787;DHT22;11055;50.870;4.316;2023-05-07T11:52:33;19.70;99.90
21787;DHT22;11055;50.870;4.316;2023-05-07T11:54:59;19.40;99.90
21787;DHT22;11055;50.870;4.316;2023-05-07T11:57:26;19.40;99.90
21787;DHT22;11055;50.870;4.316;2023-05-07T11:59:59;19.40;99.90
21787;DHT22;11055;50.870;4.316;2023-05-07T12:02:26;19.50;99.90
21787;DHT22;11055;50.870;4.316;2023-05-07T12:04:52;18.90;99.90
21787;DHT22;11055;50.870;4.316;2023-05-07T12:07:18;18.40;99.90
21787;DHT22;11055;50.870;4.316;2023-05-07T12:09:45;18.30;99.90
21787;DHT22;11055;50.870;4.316;2023-05-07T12:12:11;18.20;99.90
21787;DHT22;11055;50.870;4.316;2023-05-07T12:14:41;18.30;99.90
21787;DHT22;11055;50.870;4.316;2023-05-07T12:17:08;18.60;99.90
21787;DHT22;11055;50.870;4.316;2023-05-07T12:19:35;18.80;99.90
21787;DHT22;11055;50.870;4.316;2023-05-07T12:22:03;19.00;99.90
21787;DHT22;11055;50.870;4.316;2023-05-07T12:24:29;19.30;99.90
21787;DHT22;11055;50.870;4.316;2023-05-07T12:26:54;19.20;99.90
21787;DHT22;11055;50.870;4.316;2023-05-07T12:29:23;19.30;99.90
21787;DHT22;11055;50.870;4.316;2023-05-07T12:31:52;19.60;99.90
21787;DHT22;11055;50.870;4.316;2023-05-07T12:34:18;19.30;99.90
21787;DHT22;11055;50.870;4.316;2023-05-07T12:36:43;19.10;99.90
21787;DHT22;11055;50.870;4.316;2023-05-07T12:39:09;19.20;99.90
21787;DHT22;11055;50.870;4.316;2023-05-07T12:41:54;19.30;99.90
21787;DHT22;11055;50.870;4.316;2023-05-07T12:44:22;19.60;99.90
21787;DHT22;11055;50.870;4.316;2023-05-07T12:46:49;19.60;99.90
21787;DHT22;11055;50.870;4.316;2023-05-07T12:49:15;19.20;99.90
21787;DHT22;11055;50.870;4.316;2023-05-07T12:51:40;19.30;99.90
21787;DHT22;11055;50.870;4.316;2023-05-07T12:54:06;19.50;99.90
21787;DHT22;11055;50.870;4.316;2023-05-07T12:56:35;19.70;99.90
21787;DHT22;11055;50.870;4.316;2023-05-07T12:59:00;19.80;99.90
21787;DHT22;11055;50.870;4.316;2023-05-07T13:01:30;19.60;99.90
21787;DHT22;11055;50.870;4.316;2023-05-07T13:04:00;19.80;99.90
21787;DHT22;11055;50.870;4.316;2023-05-07T13:06:26;19.80;99.90
21787;DHT22;11055;50.870;4.316;2023-05-07T13:08:52;19.60;99.90
21787;DHT22;11055;50.870;4.316;2023-05-07T13:11:18;19.40;99.90
21787;DHT22;11055;50.870;4.316;2023-05-07T13:13:43;19.20;99.90
21787;DHT22;11055;50.870;4.316;2023-05-07T13:16:11;18.90;99.90
21787;DHT22;11055;50.870;4.316;2023-05-07T13:18:38;18.80;99.90
21787;DHT22;11055;50.870;4.316;2023-05-07T13:21:04;18.60;99.90
21787;DHT22;11055;50.870;4.316;2023-05-07T13:23:30;18.90;99.90
21787;DHT22;11055;50.870;4.316;2023-05-07T13:25:56;18.80;99.90
21787;DHT22;11055;50.870;4.316;2023-05-07T13:28:22;18.60;99.90
21787;DHT22;11055;50.870;4.316;2023-05-07T13:30:49;18.50;99.90
21787;DHT22;11055;50.870;4.316;2023-05-07T13:33:14;18.50;99.90
21787;DHT22;11055;50.870;4.316;2023-05-07T13:35:41;18.60;99.90
21787;DHT22;11055;50.870;4.316;2023-05-07T13:38:07;18.50;99.90
21787;DHT22;11055;50.870;4.316;2023-05-07T13:40:33;18.50;99.90
21787;DHT22;11055;50.870;4.316;2023-05-07T13:43:00;18.50;99.90
21787;DHT22;11055;50.870;4.316;2023-05-07T13:45:29;18.50;99.90
21787;DHT22;11055;50.870;4.316;2023-05-07T13:47:55;18.60;99.90
21787;DHT22;11055;50.870;4.316;2023-05-07T13:50:22;18.80;99.90
21787;DHT22;11055;50.870;4.316;2023-05-07T13:52:48;18.80;99.90
21787;DHT22;11055;50.870;4.316;2023-05-07T13:55:25;19.10;99.90
21787;DHT22;11055;50.870;4.316;2023-05-07T13:57:59;19.40;99.90
21787;DHT22;11055;50.870;4.316;2023-05-07T14:00:26;19.60;99.90
21787;DHT22;11055;50.870;4.316;2023-05-07T14:02:52;19.50;99.90
21787;DHT22;11055;50.870;4.316;2023-05-07T14:05:18;19.40;99.90
21787;DHT22;11055;50.870;4.316;2023-05-07T14:07:43;19.30;99.90
21787;DHT22;11055;50.870;4.316;2023-05-07T14:10:10;19.40;99.90
21787;DHT22;11055;50.870;4.316;2023-05-07T14:12:36;19.30;99.90
21787;DHT22;11055;50.870;4.316;2023-05-07T14:15:02;19.40;99.90
21787;DHT22;11055;50.870;4.316;2023-05-07T14:17:28;19.50;99.90
21787;DHT22;11055;50.870;4.316;2023-05-07T14:19:54;19.30;99.90
21787;DHT22;11055;50.870;4.316;2023-05-07T14:22:21;19.50;99.90
21787;DHT22;11055;50.870;4.316;2023-05-07T14:24:47;19.70;99.90
21787;DHT22;11055;50.870;4.316;2023-05-07T14:27:13;19.50;99.90
21787;DHT22;11055;50.870;4.316;2023-05-07T14:29:39;19.40;99.90
21787;DHT22;11055;50.870;4.316;2023-05-07T14:32:05;19.40;99.90
21787;DHT22;11055;50.870;4.316;2023-05-07T14:34:31;19.50;99.90
21787;DHT22;11055;50.870;4.316;2023-05-07T14:36:57;19.50;99.90
21787;DHT22;11055;50.870;4.316;2023-05-07T14:39:23;19.30;99.90
21787;DHT22;11055;50.870;4.316;2023-05-07T14:41:49;19.30;99.90
21787;DHT22;11055;50.870;4.316;2023-05-07T14:44:15;19.10;99.90
21787;DHT22;11055;50.870;4.316;2023-05-07T14:46:40;19.10;99.90
21787;DHT22;11055;50.870;4.316;2023-05-07T14:49:06;19.00;99.90
21787;DHT22;11055;50.870;4.316;2023-05-07T14:51:32;19.00;99.90
21787;DHT22;11055;50.870;4.316;2023-05-07T14:53:58;18.90;99.90
21787;DHT22;11055;50.870;4.316;2023-05-07T14:56:24;19.10;99.90
21787;DHT22;11055;50.870;4.316;2023-05-07T14:58:50;19.40;99.90
21787;DHT22;11055;50.870;4.316;2023-05-07T15:01:16;19.70;99.90
21787;DHT22;11055;50.870;4.316;2023-05-07T15:03:42;19.70;99.90
21787;DHT22;11055;50.870;4.316;2023-05-07T15:06:07;19.40;99.90
21787;DHT22;11055;50.870;4.316;2023-05-07T15:08:33;19.40;99.90
21787;DHT22;11055;50.870;4.316;2023-05-07T15:10:58;19.50;99.90
21787;DHT22;11055;50.870;4.316;2023-05-07T15:13:24;19.40;99.90
21787;DHT22;11055;50.870;4.316;2023-05-07T15:15:50;19.10;99.90
21787;DHT22;11055;50.870;4.316;2023-05-07T15:18:16;19.00;99.90
21787;DHT22;11055;50.870;4.316;2023-05-07T15:20:42;18.80;99.90
21787;DHT22;11055;50.870;4.316;2023-05-07T15:23:08;18.70;99.90
21787;DHT22;11055;50.870;4.316;2023-05-07T15:25:39;18.80;99.90
21787;DHT22;11055;50.870;4.316;2023-05-07T15:28:05;18.80;99.90
21787;DHT22;11055;50.870;4.316;2023-05-07T15:30:30;19.00;99.90
21787;DHT22;11055;50.870;4.316;2023-05-07T15:32:56;19.10;99.90
21787;DHT22;11055;50.870;4.316;2023-05-07T15:35:22;19.20;99.90
21787;DHT22;11055;50.870;4.316;2023-05-07T15:37:49;19.20;99.90
21787;DHT22;11055;50.870;4.316;2023-05-07T15:40:15;19.30;99.90
21787;DHT22;11055;50.870;4.316;2023-05-07T15:42:41;19.40;99.90
21787;DHT22;11055;50.870;4.316;2023-05-07T15:45:07;19.50;99.90